Terminal Aerodrome Forecast
Issued by NWS

Home | Current Version | Previous Version | Text Only | Print | Product List | Glossary On
Versions: 1 2 3 4 5 6 7 8 9 10 11 12 13 14 15 16 17 18
000
FTUS43 KGRR 241500 AAA
TAFMKG
TAF AMD
KMKG 241513Z 2415/2512 25005KT 6SM HZ OVC009
     FM241700 24007KT P6SM OVC019
     FM242000 23009KT P6SM SCT035
     FM250900 22010KT P6SM OVC020=

USA.gov is the U.S. government's official web portal to all federal, state and local government web resources and services.